This is the latest recevied weather packets stored in our database for station/object N6SPP. If no packets are shown the sender has not sent any weather packets the latest 1 day(s).
| Time | Temp. | Humidity | Pressure | Rain* | Wind** | Luminosity | Snow |
|---|---|---|---|---|---|---|---|
| 1778107047 | 24.44° C | 53% | 1020.3 hPa | 0 mm | - | 340 W/m² | - |
| 1778106440 | 24.44° C | 53% | 1020.4 hPa | 0 mm | - | 596 W/m² | - |
| 1778104923 | 24.44° C | 53% | 1020.7 hPa | 0 mm | - | 593 W/m² | - |
| 1778104620 | 23.89° C | 54% | 1020.9 hPa | 0 mm | - | 633 W/m² | - |
| 1778103105 | 24.44° C | 53% | 1021 hPa | 0 mm | - | 707 W/m² | - |
| 1778102193 | 23.89° C | 58% | 1021 hPa | 0 mm | - | 729 W/m² | - |
| 1778100070 | 22.78° C | 54% | 1021.4 hPa | 0 mm | - | 767 W/m² | - |
| 1778096130 | 22.22° C | 55% | 1022.2 hPa | 0 mm | - | 804 W/m² | - |
| 1778095524 | 22.22° C | 58% | 1022.3 hPa | 0 mm | - | 796 W/m² | - |
| 1778094310 | 21.67° C | 62% | 1022.6 hPa | 0 mm | - | 775 W/m² | - |
| 1778093098 | 21.67° C | 61% | 1022.6 hPa | 0 mm | - | 752 W/m² | - |
| 1778092795 | 21.67° C | 62% | 1022.6 hPa | 0 mm | - | 745 W/m² | - |
| 1778091280 | 22.22° C | 57% | 1022.6 hPa | 0 mm | - | 706 W/m² | - |
| 1778089763 | 20.56° C | 61% | 1022.7 hPa | 0 mm | - | 658 W/m² | - |
| 1778087945 | 20° C | 64% | 1022.8 hPa | 0 mm | - | 597 W/m² | - |
| 1778087642 | 18.89° C | 65% | 1022.7 hPa | 0 mm | - | 588 W/m² | - |
| 1778087030 | 18.33° C | 66% | 1022.7 hPa | 0 mm | - | 601 W/m² | - |
| 1778086730 | 19.44° C | 65% | 1022.6 hPa | 0 mm | - | 506 W/m² | - |
| 1778085820 | 17.78° C | 67% | 1022.7 hPa | 0 mm | - | 464 W/m² | - |
| 1778084000 | 16.67° C | 70% | 1022.7 hPa | 0 mm | - | 279 W/m² | - |
| 1778081354 | 15° C | 77% | 1022.8 hPa | 0 mm | - | 180 W/m² | - |
| 1778079536 | 15° C | 78% | 1022.7 hPa | 0 mm | - | 139 W/m² | - |
| 1778079232 | 14.44° C | 78% | 1022.7 hPa | 0 mm | - | 131 W/m² | - |
| 1778078930 | 14.44° C | 78% | 1022.7 hPa | 0 mm | - | 123 W/m² | - |
| 1778078325 | 14.44° C | 79% | 1022.7 hPa | 0 mm | - | 99 W/m² | - |
* Rain latest hour (hover to see other rain measurements)
** Current wind speed in m/s (hover to see current wind gust speed)